Terminal Aerodrome Forecast
Issued by NWS Tuscon, AZ

Home | Current Version | Previous Version | Text Only | Print | Product List | Glossary On
Versions: 1 2 3 4 5 6 7 8 9 10 11 12 13
208
FTUS45 KTWC 271740
TAFTUS
TAF
KTUS 271740Z 2718/2818 23008KT P6SM FEW100
     FM272100 31009KT P6SM SKC
     FM280200 24005KT P6SM SKC
     FM280700 14007KT P6SM SKC=

USA.gov is the U.S. government's official web portal to all federal, state and local government web resources and services.